Time;durP1;ratioP1;P1;durP2;ratioP2;P2;SDS_P1;SDS_P2;PMS_P1;PMS_P2;Temp;Humidity;BMP_temperature;BMP_pressure;BME280_temperature;BME280_humidity;BME280_pressure;Samples;Min_cycle;Max_cycle;Signal;HPM_P1;HPM_P2
2023/07/30 00:00:50;;;;;;;2.72;2.05;;;17.90;99.90;;;;;;4996377;28;20031;-73
2023/07/30 00:03:16;;;;;;;3.20;2.00;;;17.90;99.90;;;;;;4997473;28;20551;-73
2023/07/30 00:05:42;;;;;;;2.80;1.90;;;17.90;99.90;;;;;;4997537;28;20042;-74
2023/07/30 00:08:07;;;;;;;3.80;2.25;;;18.00;99.90;;;;;;4997903;28;20051;-74
2023/07/30 00:10:35;;;;;;;3.53;1.92;;;17.90;99.90;;;;;;4997409;28;20525;-74
2023/07/30 00:13:00;;;;;;;3.80;2.00;;;17.90;99.90;;;;;;4997386;28;20101;-74
2023/07/30 00:15:26;;;;;;;2.90;2.10;;;17.90;99.90;;;;;;4997288;28;20488;-73
2023/07/30 00:17:52;;;;;;;2.70;2.08;;;17.80;99.90;;;;;;4997168;28;20065;-73
2023/07/30 00:20:17;;;;;;;4.07;2.65;;;17.80;99.90;;;;;;4996134;28;20030;-72
2023/07/30 00:22:43;;;;;;;4.25;3.05;;;17.70;99.90;;;;;;4997216;28;20050;-73
2023/07/30 00:25:09;;;;;;;4.43;3.10;;;17.60;99.90;;;;;;4997413;28;20056;-73
2023/07/30 00:27:34;;;;;;;3.58;2.65;;;17.70;99.90;;;;;;4997327;28;20571;-73
2023/07/30 00:30:00;;;;;;;4.32;2.58;;;17.60;99.90;;;;;;4997018;28;20113;-73
2023/07/30 00:32:26;;;;;;;3.20;2.10;;;17.70;99.90;;;;;;4995755;28;20026;-73
2023/07/30 00:34:51;;;;;;;3.47;2.42;;;17.60;99.90;;;;;;4996920;28;20030;-73
2023/07/30 00:37:17;;;;;;;3.75;2.40;;;17.70;99.90;;;;;;4997298;28;20035;-73
2023/07/30 00:39:43;;;;;;;3.33;2.13;;;17.70;99.90;;;;;;4995711;28;20085;-73
2023/07/30 00:42:08;;;;;;;2.90;1.98;;;17.70;99.90;;;;;;4997048;28;20030;-73
2023/07/30 00:44:34;;;;;;;3.25;1.90;;;17.70;99.90;;;;;;4997065;28;20117;-73
2023/07/30 00:46:59;;;;;;;3.92;2.08;;;17.70;99.90;;;;;;4996280;28;20034;-73
2023/07/30 00:49:25;;;;;;;4.10;2.25;;;17.70;99.90;;;;;;4995600;28;20041;-73
2023/07/30 00:51:51;;;;;;;2.88;2.20;;;17.80;99.90;;;;;;4996146;28;20407;-73
2023/07/30 00:54:17;;;;;;;3.88;1.90;;;17.70;99.90;;;;;;4996609;28;20030;-73
2023/07/30 00:56:51;;;;;;;4.45;2.45;;;17.70;99.90;;;;;;4996676;28;20388;-73
2023/07/30 00:59:16;;;;;;;4.50;2.03;;;17.60;99.90;;;;;;4996526;28;20480;-73
2023/07/30 01:01:44;;;;;;;3.15;2.17;;;17.60;99.90;;;;;;4997118;28;20038;-73
2023/07/30 01:04:10;;;;;;;4.47;2.25;;;17.60;99.90;;;;;;4996585;28;20392;-73
2023/07/30 01:06:35;;;;;;;5.80;2.33;;;17.60;99.90;;;;;;4996680;28;20022;-73
2023/07/30 01:09:01;;;;;;;4.65;2.03;;;17.50;99.90;;;;;;4996612;28;20035;-73
2023/07/30 01:11:27;;;;;;;3.33;2.15;;;17.40;99.90;;;;;;4996348;28;20029;-73
2023/07/30 01:13:55;;;;;;;3.13;2.28;;;17.40;99.90;;;;;;4994927;28;20054;-73
2023/07/30 01:16:20;;;;;;;4.40;2.25;;;17.30;99.90;;;;;;4995146;28;20101;-72
2023/07/30 01:18:46;;;;;;;3.17;2.00;;;17.30;99.90;;;;;;4995964;28;20483;-73
2023/07/30 01:21:12;;;;;;;4.75;2.00;;;17.20;99.90;;;;;;4996417;28;20030;-73
2023/07/30 01:23:38;;;;;;;3.28;2.22;;;17.20;99.90;;;;;;4994923;28;20032;-74
2023/07/30 01:26:10;;;;;;;3.47;2.05;;;17.10;99.90;;;;;;4996097;28;20066;-73
2023/07/30 01:28:51;;;;;;;2.92;1.90;;;17.20;99.90;;;;;;4995947;28;20019;-74
2023/07/30 01:31:18;;;;;;;2.83;1.92;;;17.20;99.90;;;;;;4996000;28;20575;-74
2023/07/30 01:33:48;;;;;;;3.55;2.05;;;17.20;99.90;;;;;;4996068;28;20040;-74
2023/07/30 01:36:16;;;;;;;3.47;2.05;;;17.30;99.90;;;;;;4995877;28;20109;-73
2023/07/30 01:38:43;;;;;;;4.47;2.13;;;17.30;99.90;;;;;;4995951;28;20065;-73
2023/07/30 01:41:09;;;;;;;4.07;2.50;;;17.30;99.90;;;;;;4994589;28;20481;-73
2023/07/30 01:43:35;;;;;;;3.72;1.73;;;17.30;99.90;;;;;;4995979;28;20081;-74
2023/07/30 01:46:01;;;;;;;2.97;1.85;;;17.20;99.90;;;;;;4995042;28;20381;-73
2023/07/30 01:48:27;;;;;;;3.38;2.00;;;17.20;99.90;;;;;;4994319;28;20054;-73
2023/07/30 01:50:52;;;;;;;2.67;1.85;;;17.20;99.90;;;;;;4995629;28;20030;-73
2023/07/30 01:53:18;;;;;;;2.83;2.10;;;17.20;99.90;;;;;;4995558;28;20037;-73
2023/07/30 01:55:45;;;;;;;2.92;1.95;;;17.30;99.90;;;;;;4995760;28;20034;-73
2023/07/30 01:58:14;;;;;;;3.55;2.20;;;17.30;99.90;;;;;;4994748;28;20022;-73
2023/07/30 02:00:40;;;;;;;4.10;2.00;;;17.30;99.90;;;;;;4995641;28;20034;-73
2023/07/30 02:03:06;;;;;;;5.88;2.28;;;17.20;99.90;;;;;;5015051;28;20026;-73
2023/07/30 02:05:32;;;;;;;11.20;7.93;;;17.10;99.90;;;;;;5015480;28;20061;-73
2023/07/30 02:07:58;;;;;;;12.73;7.45;;;17.10;99.90;;;;;;5015105;28;20026;-73
2023/07/30 02:10:27;;;;;;;10.25;7.25;;;17.00;99.90;;;;;;5014835;28;20033;-73
2023/07/30 02:12:52;;;;;;;10.65;7.30;;;17.00;99.90;;;;;;5015342;28;20033;-73
2023/07/30 02:15:18;;;;;;;10.13;6.53;;;17.00;99.90;;;;;;5014703;28;20424;-73
2023/07/30 02:17:44;;;;;;;8.57;6.63;;;17.00;99.90;;;;;;5014536;28;20034;-73
2023/07/30 02:20:09;;;;;;;8.02;5.95;;;17.10;99.90;;;;;;5014794;28;20025;-73
2023/07/30 02:22:35;;;;;;;5.53;4.10;;;17.10;99.90;;;;;;5014837;28;20029;-73
2023/07/30 02:25:01;;;;;;;4.10;3.08;;;17.20;99.90;;;;;;5014674;28;20037;-73
2023/07/30 02:27:27;;;;;;;4.68;3.45;;;17.10;99.90;;;;;;5014539;28;20428;-73
2023/07/30 02:29:52;;;;;;;4.85;3.95;;;17.10;99.90;;;;;;5014573;28;20503;-73
2023/07/30 02:32:18;;;;;;;6.20;3.58;;;17.00;99.90;;;;;;5014487;28;20379;-74
2023/07/30 02:34:43;;;;;;;3.80;2.72;;;16.90;99.90;;;;;;5014840;28;20558;-74
2023/07/30 02:37:09;;;;;;;4.65;3.08;;;16.80;99.90;;;;;;5014332;28;20022;-74
2023/07/30 02:39:35;;;;;;;3.63;2.55;;;16.80;99.90;;;;;;5014373;28;20076;-74
2023/07/30 02:42:00;;;;;;;3.22;2.35;;;16.70;99.90;;;;;;5013214;28;20030;-74
2023/07/30 02:44:26;;;;;;;4.15;2.80;;;16.70;99.90;;;;;;5014334;28;20025;-74
2023/07/30 02:46:52;;;;;;;5.10;2.60;;;16.60;99.90;;;;;;5013204;28;20042;-74
2023/07/30 02:49:17;;;;;;;4.97;3.20;;;16.60;99.90;;;;;;5014367;28;20041;-74
2023/07/30 02:51:48;;;;;;;5.32;3.40;;;16.60;99.90;;;;;;5015201;28;20030;-73
2023/07/30 02:54:14;;;;;;;8.23;6.00;;;16.60;99.90;;;;;;5014537;28;20026;-73
2023/07/30 02:56:39;;;;;;;5.97;4.97;;;16.50;99.90;;;;;;5014093;28;20026;-74
2023/07/30 02:59:06;;;;;;;6.15;4.47;;;16.50;99.90;;;;;;5014125;28;20046;-74
2023/07/30 03:01:32;;;;;;;4.38;3.22;;;16.50;99.90;;;;;;5012915;28;20041;-73
2023/07/30 03:03:57;;;;;;;4.80;3.50;;;16.50;99.90;;;;;;5012722;28;20022;-73
2023/07/30 03:06:23;;;;;;;4.00;2.90;;;16.50;99.90;;;;;;5014206;28;20030;-73
2023/07/30 03:08:49;;;;;;;3.90;2.67;;;16.50;99.90;;;;;;5013879;28;20026;-73
2023/07/30 03:11:14;;;;;;;3.80;2.50;;;16.50;99.90;;;;;;5013778;28;20033;-74
2023/07/30 03:13:40;;;;;;;4.85;2.55;;;16.50;99.90;;;;;;5013882;28;20050;-73
2023/07/30 03:16:06;;;;;;;3.90;2.92;;;16.50;99.90;;;;;;5013739;28;20032;-73
2023/07/30 03:18:31;;;;;;;4.63;2.70;;;16.50;99.90;;;;;;5012289;28;20042;-73
2023/07/30 03:20:59;;;;;;;3.90;2.72;;;16.50;99.90;;;;;;5013757;28;20030;-74
2023/07/30 03:23:25;;;;;;;3.65;2.92;;;16.50;99.90;;;;;;5014099;28;20048;-73
2023/07/30 03:25:50;;;;;;;5.93;2.97;;;16.60;99.90;;;;;;5012508;28;20175;-73
2023/07/30 03:28:16;;;;;;;4.53;2.83;;;16.60;99.90;;;;;;5013876;28;20056;-73
2023/07/30 03:30:42;;;;;;;3.28;2.40;;;16.70;99.90;;;;;;5014459;28;20446;-73
2023/07/30 03:33:07;;;;;;;3.50;2.20;;;16.80;99.90;;;;;;5013919;28;20022;-73
2023/07/30 03:35:33;;;;;;;3.90;2.60;;;16.80;99.90;;;;;;5013780;28;20030;-73
2023/07/30 03:37:59;;;;;;;4.20;2.65;;;16.90;99.90;;;;;;5013700;28;20494;-74
2023/07/30 03:40:24;;;;;;;3.53;2.70;;;16.90;99.90;;;;;;5013632;28;20036;-73
2023/07/30 03:42:51;;;;;;;4.85;2.30;;;16.90;99.90;;;;;;5013527;28;20056;-73
2023/07/30 03:45:17;;;;;;;3.65;2.30;;;16.90;99.90;;;;;;5013787;28;20034;-74
2023/07/30 03:47:43;;;;;;;4.00;2.42;;;17.00;99.90;;;;;;5012620;28;20037;-73
2023/07/30 03:50:09;;;;;;;3.63;2.28;;;16.90;99.90;;;;;;5013404;28;20479;-73
2023/07/30 03:52:34;;;;;;;3.28;2.30;;;17.00;99.90;;;;;;5013606;28;20042;-74
2023/07/30 03:55:00;;;;;;;3.15;2.22;;;17.00;99.90;;;;;;5013536;28;20037;-73
2023/07/30 03:57:26;;;;;;;3.70;2.42;;;17.00;99.90;;;;;;5013424;28;20026;-73
2023/07/30 03:59:51;;;;;;;3.85;2.60;;;17.00;99.90;;;;;;5013893;28;20038;-73
2023/07/30 04:02:17;;;;;;;3.55;2.40;;;17.00;99.90;;;;;;5013620;28;20464;-73
2023/07/30 04:04:48;;;;;;;3.40;2.38;;;16.90;99.90;;;;;;5012057;28;20042;-73
2023/07/30 04:07:14;;;;;;;4.53;2.63;;;16.90;99.90;;;;;;5012073;28;20080;-74
2023/07/30 04:09:39;;;;;;;3.85;2.33;;;16.90;99.90;;;;;;5013248;28;20444;-74
2023/07/30 04:12:05;;;;;;;5.30;2.80;;;16.90;99.90;;;;;;5013494;28;20049;-74
2023/07/30 04:14:31;;;;;;;7.57;3.97;;;16.90;99.90;;;;;;5013356;28;20115;-74
2023/07/30 04:16:56;;;;;;;6.38;3.50;;;16.90;99.90;;;;;;5013164;28;20056;-74
2023/07/30 04:19:22;;;;;;;3.67;2.45;;;16.90;99.90;;;;;;5013063;28;20034;-74
2023/07/30 04:21:48;;;;;;;4.00;2.83;;;16.90;99.90;;;;;;5012678;28;20026;-74
2023/07/30 04:24:13;;;;;;;3.60;2.60;;;16.90;99.90;;;;;;5016922;28;20033;-74
2023/07/30 04:26:39;;;;;;;3.90;2.50;;;16.90;99.90;;;;;;5016829;28;20022;-74
2023/07/30 04:29:04;;;;;;;5.70;2.78;;;16.80;99.90;;;;;;5015445;28;20498;-74
2023/07/30 04:31:32;;;;;;;4.95;2.50;;;16.80;99.90;;;;;;5015858;28;20026;-74
2023/07/30 04:33:58;;;;;;;3.40;2.55;;;16.70;99.90;;;;;;5015424;28;20064;-74
2023/07/30 04:36:23;;;;;;;3.50;2.30;;;16.70;99.90;;;;;;5016841;28;20058;-74
2023/07/30 04:38:49;;;;;;;3.13;2.33;;;16.70;99.90;;;;;;5016718;28;20034;-74
2023/07/30 04:41:15;;;;;;;3.53;2.40;;;16.70;99.90;;;;;;5016887;28;20437;-74
2023/07/30 04:43:40;;;;;;;4.45;2.10;;;16.70;99.90;;;;;;5016568;28;20431;-74
2023/07/30 04:46:06;;;;;;;4.10;2.70;;;16.60;99.90;;;;;;5015466;28;20026;-74
2023/07/30 04:48:32;;;;;;;3.47;2.53;;;16.60;99.90;;;;;;5016381;28;20110;-74
2023/07/30 04:50:57;;;;;;;2.72;2.00;;;16.70;99.90;;;;;;5015403;28;20044;-74
2023/07/30 04:53:23;;;;;;;3.88;2.53;;;16.60;99.90;;;;;;5016580;28;20033;-74
2023/07/30 04:55:54;;;;;;;3.88;2.33;;;16.70;99.90;;;;;;5015082;28;20026;-74
2023/07/30 04:58:19;;;;;;;3.33;2.60;;;16.80;99.90;;;;;;5016313;28;20014;-74
2023/07/30 05:00:45;;;;;;;3.60;2.47;;;16.80;99.90;;;;;;5016179;28;20395;-74
2023/07/30 05:03:11;;;;;;;3.05;2.22;;;16.80;99.90;;;;;;5016225;28;20034;-74
2023/07/30 05:05:36;;;;;;;4.00;2.63;;;16.70;99.90;;;;;;5016153;28;20037;-74
2023/07/30 05:08:02;;;;;;;3.03;2.17;;;16.70;99.90;;;;;;5014680;28;20499;-74
2023/07/30 05:10:28;;;;;;;3.88;2.60;;;16.80;99.90;;;;;;5014850;28;20056;-74
2023/07/30 05:12:53;;;;;;;3.47;2.20;;;16.80;99.90;;;;;;5016236;28;20036;-74
2023/07/30 05:15:19;;;;;;;2.97;2.25;;;16.80;99.90;;;;;;4998661;28;20064;-74
2023/07/30 05:17:45;;;;;;;3.53;2.50;;;16.80;99.90;;;;;;5015624;28;20038;-74
2023/07/30 05:20:11;;;;;;;3.78;2.33;;;16.80;99.90;;;;;;5015021;28;20030;-74
2023/07/30 05:22:36;;;;;;;4.03;2.40;;;16.80;99.90;;;;;;5014668;28;20022;-74
2023/07/30 05:25:02;;;;;;;3.40;2.20;;;16.80;99.90;;;;;;4998171;28;20450;-74
2023/07/30 05:27:28;;;;;;;3.35;2.10;;;16.80;99.90;;;;;;5014373;28;20029;-74
2023/07/30 05:29:55;;;;;;;2.95;1.90;;;16.80;99.90;;;;;;5015925;28;20026;-74
2023/07/30 05:32:20;;;;;;;3.30;2.17;;;16.90;99.90;;;;;;5014533;28;20038;-74
2023/07/30 05:34:46;;;;;;;2.70;2.03;;;16.90;99.90;;;;;;5014243;28;20442;-73
2023/07/30 05:37:12;;;;;;;3.28;2.30;;;16.90;99.90;;;;;;5014307;28;20384;-74
2023/07/30 05:39:37;;;;;;;3.30;2.00;;;17.00;99.90;;;;;;5014585;28;20034;-74
2023/07/30 05:42:03;;;;;;;3.22;2.38;;;17.00;99.90;;;;;;5015483;28;20409;-74
2023/07/30 05:44:29;;;;;;;4.57;2.47;;;17.00;99.90;;;;;;5015446;28;20483;-74
2023/07/30 05:46:55;;;;;;;4.40;2.25;;;17.00;99.90;;;;;;5016013;28;20026;-73
2023/07/30 05:49:20;;;;;;;5.80;2.30;;;17.00;99.90;;;;;;5015263;28;20045;-73
2023/07/30 05:51:46;;;;;;;2.78;2.13;;;17.10;99.90;;;;;;5015659;28;20036;-74
2023/07/30 05:54:13;;;;;;;3.17;2.25;;;17.10;99.90;;;;;;5015403;28;20058;-74
2023/07/30 05:56:38;;;;;;;3.17;2.00;;;17.10;99.90;;;;;;5015062;28;20025;-73
2023/07/30 05:59:04;;;;;;;3.13;2.08;;;17.10;99.90;;;;;;5015725;28;20026;-73
2023/07/30 06:01:30;;;;;;;3.35;2.20;;;17.10;99.90;;;;;;5015547;28;20396;-74
2023/07/30 06:03:55;;;;;;;3.20;2.17;;;17.10;99.90;;;;;;5015485;28;20113;-73
2023/07/30 06:06:26;;;;;;;3.03;2.17;;;17.10;99.90;;;;;;5015480;28;20037;-73
2023/07/30 06:08:53;;;;;;;3.35;2.10;;;17.20;99.90;;;;;;5015333;28;20428;-73
2023/07/30 06:11:18;;;;;;;4.30;2.42;;;17.20;99.90;;;;;;5014995;28;20061;-73
2023/07/30 06:13:44;;;;;;;3.83;2.20;;;17.20;99.90;;;;;;5014215;28;20065;-73
2023/07/30 06:16:10;;;;;;;2.97;2.20;;;17.30;99.90;;;;;;5013643;28;20026;-73
2023/07/30 06:18:36;;;;;;;3.28;2.00;;;17.30;99.90;;;;;;5014552;28;20042;-74
2023/07/30 06:21:01;;;;;;;4.10;2.33;;;17.40;99.90;;;;;;5015459;28;20022;-74
2023/07/30 06:23:27;;;;;;;3.05;2.13;;;17.40;99.90;;;;;;5021495;28;20030;-74
2023/07/30 06:25:53;;;;;;;4.05;1.98;;;17.40;99.90;;;;;;5013320;28;20534;-74
2023/07/30 06:28:18;;;;;;;3.95;2.75;;;17.50;99.90;;;;;;5014131;28;20026;-74
2023/07/30 06:30:44;;;;;;;3.83;2.50;;;17.60;99.90;;;;;;5012212;28;20105;-74
2023/07/30 06:33:10;;;;;;;6.80;3.17;;;17.60;99.90;;;;;;5010785;28;20041;-74
2023/07/30 06:35:35;;;;;;;3.75;2.75;;;17.70;99.90;;;;;;5012776;28;20037;-74
2023/07/30 06:38:01;;;;;;;3.15;2.45;;;17.80;99.90;;;;;;5013756;28;20030;-74
2023/07/30 06:40:27;;;;;;;3.97;2.63;;;17.90;99.90;;;;;;5014718;28;20042;-74
2023/07/30 06:42:53;;;;;;;6.35;2.60;;;17.90;99.90;;;;;;5012603;28;20026;-74
2023/07/30 06:45:18;;;;;;;3.80;2.53;;;17.90;99.90;;;;;;5017254;28;20041;-74
2023/07/30 06:47:44;;;;;;;5.03;2.50;;;18.00;99.90;;;;;;5013828;28;20536;-74
2023/07/30 06:50:10;;;;;;;3.47;2.60;;;18.10;99.90;;;;;;5016927;28;20036;-74
2023/07/30 06:52:36;;;;;;;3.80;2.63;;;18.10;99.90;;;;;;5013882;28;20038;-74
2023/07/30 06:55:03;;;;;;;4.13;2.47;;;18.20;99.90;;;;;;5014783;28;20034;-74
2023/07/30 06:57:29;;;;;;;3.17;2.30;;;18.10;99.90;;;;;;5013791;28;20034;-74
2023/07/30 06:59:55;;;;;;;5.00;2.88;;;18.10;99.90;;;;;;5014254;28;20112;-75
2023/07/30 07:02:20;;;;;;;3.63;2.60;;;18.20;99.90;;;;;;5013240;28;20068;-74
2023/07/30 07:04:46;;;;;;;3.38;2.30;;;18.20;99.90;;;;;;5014030;28;20026;-74
2023/07/30 07:07:12;;;;;;;3.10;2.15;;;18.20;99.90;;;;;;5013480;28;20080;-74
2023/07/30 07:09:37;;;;;;;3.50;2.20;;;18.30;99.90;;;;;;5012550;28;20026;-74
2023/07/30 07:12:03;;;;;;;2.90;2.17;;;18.30;99.90;;;;;;5012557;28;20117;-74
2023/07/30 07:14:29;;;;;;;3.67;2.20;;;18.40;99.90;;;;;;5014209;28;20026;-74
2023/07/30 07:16:58;;;;;;;3.13;2.22;;;18.60;99.90;;;;;;5012364;28;20034;-74
2023/07/30 07:19:24;;;;;;;4.60;2.90;;;18.70;99.90;;;;;;5016642;28;20033;-74
2023/07/30 07:21:50;;;;;;;5.82;2.50;;;18.80;99.90;;;;;;5014691;28;20037;-74
2023/07/30 07:24:16;;;;;;;4.03;2.55;;;19.00;99.90;;;;;;5011455;28;20065;-74
2023/07/30 07:26:41;;;;;;;3.40;2.53;;;19.10;99.90;;;;;;5011401;28;20033;-74
2023/07/30 07:29:07;;;;;;;3.35;2.20;;;19.30;99.90;;;;;;5012263;28;20537;-74
2023/07/30 07:31:33;;;;;;;2.83;2.13;;;19.50;99.90;;;;;;5013050;28;20037;-74
2023/07/30 07:33:58;;;;;;;5.13;2.63;;;19.60;99.90;;;;;;5012173;28;20045;-74
2023/07/30 07:36:24;;;;;;;3.25;2.20;;;19.70;99.90;;;;;;5012150;28;20033;-74
2023/07/30 07:38:50;;;;;;;2.90;2.00;;;19.70;99.90;;;;;;5013530;28;20502;-74
2023/07/30 07:41:16;;;;;;;2.92;2.05;;;19.70;99.90;;;;;;5013474;28;20029;-74
2023/07/30 07:43:46;;;;;;;4.15;2.40;;;19.60;99.90;;;;;;5012197;28;20038;-74
2023/07/30 07:46:15;;;;;;;3.13;1.88;;;19.50;99.90;;;;;;5013466;28;20032;-74
2023/07/30 07:48:41;;;;;;;3.65;2.10;;;19.50;99.90;;;;;;5013893;28;20037;-74
2023/07/30 07:51:09;;;;;;;2.38;1.63;;;19.60;99.90;;;;;;5013442;28;20022;-74
2023/07/30 07:53:34;;;;;;;2.88;1.70;;;19.70;99.90;;;;;;5013513;28;20108;-74
2023/07/30 07:56:00;;;;;;;2.83;2.05;;;19.80;99.90;;;;;;5013330;28;20109;-74
2023/07/30 07:58:26;;;;;;;3.00;2.17;;;19.90;99.90;;;;;;5016828;28;20080;-73
2023/07/30 08:00:55;;;;;;;4.00;1.98;;;20.10;99.90;;;;;;5017285;28;20040;-74
2023/07/30 08:03:21;;;;;;;3.10;1.80;;;20.30;99.90;;;;;;5017307;28;20023;-74
2023/07/30 08:05:47;;;;;;;2.53;1.52;;;20.40;99.90;;;;;;5017181;28;20025;-73
2023/07/30 08:08:13;;;;;;;5.80;1.90;;;20.50;99.90;;;;;;5016104;28;20164;-73
2023/07/30 08:10:39;;;;;;;2.60;1.80;;;20.70;99.90;;;;;;5017035;28;20054;-74
2023/07/30 08:13:05;;;;;;;3.53;2.75;;;20.80;99.90;;;;;;5017068;28;20484;-74
2023/07/30 08:15:32;;;;;;;5.93;2.83;;;21.00;99.90;;;;;;5017295;28;20084;-74
2023/07/30 08:17:58;;;;;;;3.00;2.35;;;21.10;99.90;;;;;;5015585;28;20041;-74
2023/07/30 08:20:23;;;;;;;2.97;2.15;;;21.00;99.90;;;;;;5015841;28;20026;-75
2023/07/30 08:22:49;;;;;;;2.80;1.92;;;20.90;99.90;;;;;;5017024;28;20026;-74
2023/07/30 08:25:15;;;;;;;4.72;2.28;;;20.90;99.90;;;;;;5016843;28;20109;-74
2023/07/30 08:27:40;;;;;;;3.20;2.28;;;20.90;99.90;;;;;;5017498;28;20034;-74
2023/07/30 08:30:07;;;;;;;3.88;2.45;;;20.90;99.90;;;;;;5016810;28;20117;-74
2023/07/30 08:32:33;;;;;;;3.83;2.33;;;20.90;99.90;;;;;;5016825;28;20030;-74
2023/07/30 08:34:58;;;;;;;3.53;2.05;;;20.80;99.90;;;;;;5016622;28;20034;-74
2023/07/30 08:37:24;;;;;;;3.60;2.30;;;20.70;99.90;;;;;;5015576;28;20034;-74
2023/07/30 08:39:51;;;;;;;3.88;2.53;;;20.60;99.90;;;;;;5015410;28;20068;-74
2023/07/30 08:42:17;;;;;;;4.43;2.33;;;20.60;99.90;;;;;;5016574;28;20030;-74
2023/07/30 08:44:43;;;;;;;4.45;2.47;;;20.70;99.90;;;;;;5016539;28;20037;-74
2023/07/30 08:47:10;;;;;;;3.83;2.55;;;20.80;99.90;;;;;;5016648;28;20030;-74
2023/07/30 08:49:35;;;;;;;2.78;2.17;;;20.80;99.90;;;;;;5016420;28;20026;-74
2023/07/30 08:52:03;;;;;;;3.60;2.00;;;20.70;99.90;;;;;;5016364;28;20087;-75
2023/07/30 08:54:31;;;;;;;3.13;2.28;;;20.70;99.90;;;;;;5016243;28;20036;-74
2023/07/30 08:56:58;;;;;;;4.57;2.10;;;20.70;99.90;;;;;;5016201;28;20488;-75
2023/07/30 08:59:27;;;;;;;3.20;2.15;;;20.70;99.90;;;;;;5016190;28;20034;-75
2023/07/30 09:01:54;;;;;;;3.47;2.45;;;20.70;99.90;;;;;;5016177;28;20030;-75
2023/07/30 09:04:21;;;;;;;3.10;2.05;;;20.70;99.90;;;;;;5016299;28;20080;-75
2023/07/30 09:06:50;;;;;;;3.55;2.40;;;20.60;99.90;;;;;;5014959;28;20076;-75
2023/07/30 09:09:16;;;;;;;3.78;2.35;;;20.60;99.90;;;;;;5015604;28;20097;-75
2023/07/30 09:11:42;;;;;;;4.50;2.47;;;20.60;99.90;;;;;;5015997;28;20125;-75
2023/07/30 09:14:09;;;;;;;6.70;2.40;;;20.60;99.90;;;;;;5015944;28;20076;-74
2023/07/30 09:16:34;;;;;;;3.45;2.33;;;20.60;99.90;;;;;;5014609;28;20411;-74
2023/07/30 09:19:00;;;;;;;4.15;2.58;;;20.80;99.90;;;;;;5015677;28;20084;-74
2023/07/30 09:21:34;;;;;;;3.33;2.20;;;21.00;99.90;;;;;;5014879;28;20026;-75
2023/07/30 09:24:06;;;;;;;3.33;2.13;;;21.20;99.90;;;;;;5015723;28;20044;-75
2023/07/30 09:26:46;;;;;;;3.38;1.77;;;21.40;99.90;;;;;;5015835;28;20033;-75
2023/07/30 09:29:12;;;;;;;4.10;2.10;;;21.60;99.90;;;;;;5015644;28;20400;-75
2023/07/30 09:31:54;;;;;;;3.20;1.80;;;21.70;99.90;;;;;;5014519;28;20487;-74
2023/07/30 09:34:20;;;;;;;2.50;1.70;;;21.70;99.90;;;;;;5015634;28;20030;-75
2023/07/30 09:36:47;;;;;;;3.00;1.90;;;21.70;99.90;;;;;;5014718;28;20022;-75
2023/07/30 09:39:21;;;;;;;2.85;1.83;;;21.50;99.90;;;;;;5014288;28;20030;-75
2023/07/30 09:41:47;;;;;;;2.30;1.55;;;21.40;99.90;;;;;;5015829;28;20080;-75
2023/07/30 09:44:16;;;;;;;3.55;1.67;;;21.30;99.90;;;;;;5014339;28;20116;-75
2023/07/30 09:46:43;;;;;;;2.53;1.70;;;21.30;99.90;;;;;;5015563;28;20061;-75
2023/07/30 09:49:10;;;;;;;4.28;1.75;;;21.20;99.90;;;;;;5015249;28;20026;-74
2023/07/30 09:51:38;;;;;;;2.42;1.70;;;21.10;99.90;;;;;;5015226;28;20112;-74
2023/07/30 09:54:05;;;;;;;5.18;2.15;;;21.00;99.90;;;;;;5015464;28;20013;-74
2023/07/30 09:56:31;;;;;;;2.78;1.80;;;20.80;99.90;;;;;;5015058;28;20100;-72
2023/07/30 09:58:57;;;;;;;4.22;1.88;;;20.60;99.90;;;;;;5015046;28;20080;-73
2023/07/30 10:01:25;;;;;;;2.72;1.70;;;20.50;99.90;;;;;;5015064;28;20038;-73
2023/07/30 10:03:51;;;;;;;2.92;1.58;;;20.30;99.90;;;;;;5015343;28;20029;-73
2023/07/30 10:06:17;;;;;;;2.78;1.42;;;20.20;99.90;;;;;;5014945;28;20030;-73
2023/07/30 10:08:45;;;;;;;2.63;1.40;;;20.10;99.90;;;;;;5015088;28;20038;-73
2023/07/30 10:11:11;;;;;;;2.40;1.33;;;20.00;99.90;;;;;;5015075;28;20030;-72
2023/07/30 10:13:38;;;;;;;2.65;1.60;;;20.00;99.90;;;;;;5014900;28;20037;-73
2023/07/30 10:16:12;;;;;;;2.03;1.15;;;20.00;99.90;;;;;;5014785;28;20030;-72
2023/07/30 10:18:41;;;;;;;2.90;1.38;;;20.10;99.90;;;;;;5014672;28;20038;-72
2023/07/30 10:21:11;;;;;;;2.50;1.17;;;20.10;99.90;;;;;;5014052;28;20022;-73
2023/07/30 10:24:08;;;;;;;2.35;1.50;;;20.20;99.90;;;;;;5014695;28;20416;-73
2023/07/30 10:26:36;;;;;;;1.80;1.20;;;20.20;99.90;;;;;;5003073;28;20029;-73
2023/07/30 10:29:15;;;;;;;2.22;1.42;;;20.30;99.90;;;;;;5014471;28;20096;-73
2023/07/30 10:31:43;;;;;;;2.35;1.38;;;20.30;99.90;;;;;;5014579;28;20049;-73
2023/07/30 10:34:10;;;;;;;2.35;1.38;;;20.30;99.90;;;;;;5013257;28;20399;-73
2023/07/30 10:36:47;;;;;;;2.40;1.45;;;20.30;99.90;;;;;;5014454;28;20030;-73
2023/07/30 10:39:16;;;;;;;3.58;1.20;;;20.40;99.90;;;;;;5014317;28;20117;-73
2023/07/30 10:41:44;;;;;;;2.22;1.30;;;20.50;99.90;;;;;;5014348;28;20022;-73
2023/07/30 10:44:19;;;;;;;2.03;1.30;;;20.60;99.90;;;;;;5014366;28;20383;-73
2023/07/30 10:46:45;;;;;;;3.35;1.40;;;20.60;99.90;;;;;;5014343;28;20107;-73
2023/07/30 10:49:12;;;;;;;3.15;1.50;;;20.70;99.90;;;;;;5014132;28;20061;-73
2023/07/30 10:51:37;;;;;;;2.65;1.45;;;21.00;99.90;;;;;;5014257;28;20022;-72
2023/07/30 10:54:07;;;;;;;3.90;1.25;;;21.10;99.90;;;;;;5014415;28;20037;-72
2023/07/30 10:56:36;;;;;;;2.35;1.42;;;21.20;99.90;;;;;;5014009;28;20475;-72
2023/07/30 10:59:05;;;;;;;3.40;1.88;;;21.30;99.90;;;;;;5014190;28;20396;-73
2023/07/30 11:01:31;;;;;;;4.10;1.70;;;21.40;99.90;;;;;;5012014;28;20025;-74
2023/07/30 11:03:56;;;;;;;2.75;1.42;;;21.50;99.90;;;;;;4994651;28;20362;-73
2023/07/30 11:06:23;;;;;;;1.95;1.13;;;21.70;99.90;;;;;;4993181;28;20036;-74
2023/07/30 11:08:49;;;;;;;2.45;1.48;;;22.00;99.90;;;;;;4994203;28;20030;-74
2023/07/30 11:11:15;;;;;;;2.53;1.40;;;22.40;99.90;;;;;;4993022;28;20182;-73
2023/07/30 11:13:46;;;;;;;2.88;1.42;;;22.60;99.90;;;;;;4993377;28;20081;-74
2023/07/30 11:16:13;;;;;;;2.45;1.48;;;22.80;99.90;;;;;;4994377;28;20034;-74
2023/07/30 11:18:40;;;;;;;3.05;1.80;;;22.90;99.90;;;;;;4994062;28;20026;-74
2023/07/30 11:21:07;;;;;;;3.42;1.30;;;22.90;99.90;;;;;;4994109;28;20448;-74
2023/07/30 11:23:34;;;;;;;2.30;1.20;;;23.20;99.90;;;;;;4994060;28;20036;-75
2023/07/30 11:26:02;;;;;;;2.42;1.50;;;23.50;99.90;;;;;;4994102;28;20026;-75
2023/07/30 11:28:32;;;;;;;2.30;1.25;;;23.70;99.90;;;;;;4993955;28;20097;-75
2023/07/30 11:31:10;;;;;;;2.00;1.13;;;23.80;99.90;;;;;;4994275;28;20041;-75
2023/07/30 11:33:38;;;;;;;1.80;1.08;;;23.80;99.90;;;;;;4994212;28;20105;-75
2023/07/30 11:36:07;;;;;;;1.77;1.10;;;23.80;99.90;;;;;;4993902;28;20484;-74
2023/07/30 11:38:33;;;;;;;2.30;1.33;;;23.80;99.90;;;;;;4976371;28;20089;-75
2023/07/30 11:40:59;;;;;;;2.00;0.90;;;23.60;99.90;;;;;;4992694;28;20077;-75
2023/07/30 11:43:25;;;;;;;1.88;1.05;;;23.60;99.90;;;;;;4993909;28;20018;-75
2023/07/30 11:46:07;;;;;;;2.58;1.42;;;23.50;99.90;;;;;;4992628;28;20037;-75
2023/07/30 11:48:33;;;;;;;2.42;1.33;;;23.30;99.90;;;;;;4994117;28;20045;-75
2023/07/30 11:50:59;;;;;;;2.00;1.20;;;23.20;99.90;;;;;;4993794;28;20026;-75
2023/07/30 11:53:47;;;;;;;2.38;1.35;;;23.30;99.90;;;;;;4992715;28;20072;-75
2023/07/30 11:56:26;;;;;;;2.17;1.20;;;23.40;99.90;;;;;;5003921;28;20084;-75
2023/07/30 11:58:56;;;;;;;3.50;1.20;;;23.50;99.90;;;;;;5013257;28;20047;-75
2023/07/30 12:01:25;;;;;;;2.17;1.27;;;23.50;99.90;;;;;;5013121;28;20018;-75
2023/07/30 12:03:53;;;;;;;3.22;1.20;;;23.50;99.90;;;;;;5016093;28;20113;-75
2023/07/30 12:06:19;;;;;;;2.40;1.25;;;23.50;99.90;;;;;;5012840;28;20026;-75
2023/07/30 12:08:44;;;;;;;1.58;1.02;;;23.70;99.90;;;;;;5014275;28;20553;-75
2023/07/30 12:11:11;;;;;;;2.92;0.90;;;23.80;99.90;;;;;;5011971;28;20037;-76
2023/07/30 12:13:45;;;;;;;2.13;1.20;;;23.90;99.90;;;;;;5011589;28;20030;-76
2023/07/30 12:16:12;;;;;;;1.50;1.00;;;23.90;99.90;;;;;;5012986;28;20026;-76
2023/07/30 12:18:38;;;;;;;2.30;1.08;;;24.00;99.90;;;;;;5015160;28;20018;-76
2023/07/30 12:21:06;;;;;;;1.63;1.00;;;24.00;99.90;;;;;;5012943;28;20472;-76
2023/07/30 12:23:32;;;;;;;2.40;1.27;;;24.00;99.90;;;;;;5012906;28;20104;-76
2023/07/30 12:25:58;;;;;;;3.45;1.30;;;24.10;99.90;;;;;;5011699;28;20129;-76
2023/07/30 12:28:23;;;;;;;2.00;1.00;;;24.20;99.90;;;;;;5012601;28;20034;-76
2023/07/30 12:30:49;;;;;;;2.35;1.10;;;24.20;99.90;;;;;;5011663;28;20385;-76
2023/07/30 12:33:15;;;;;;;1.63;1.00;;;24.40;99.90;;;;;;5013026;28;20450;-76
2023/07/30 12:35:41;;;;;;;2.17;1.20;;;24.40;99.90;;;;;;5012762;28;20038;-76
2023/07/30 12:38:06;;;;;;;1.48;0.95;;;24.30;99.90;;;;;;5012816;28;20033;-76
2023/07/30 12:40:33;;;;;;;1.65;1.05;;;24.30;99.90;;;;;;5012805;28;20034;-76
2023/07/30 12:43:01;;;;;;;2.55;1.15;;;24.50;99.90;;;;;;5012648;28;20022;-76